BGTLCYLT

Guest
Details From BGTL - THULE AIR BASE
To CYLT - ALERT
Flight Number -
Tags generated
Created
Modified
Stats Distance 370 nm / 685 km
Max Altitude 35,000 ft / 10,668 m
Waypoints 6
Social Downloads 0
Likes 0
Share VATSIM

Download

Looking for another format? Having issues loading an existing format? Contact us
Advertisement - Login to hide

Notes

Basic altitude profile: - Ascent Rate: 2500ft/min - Ascent Speed: 250kts - Cruise Altitude: 35000ft - Cruise Speed: 420kts - Descent Rate: 1500ft/min - Descent Speed: 250kts Options: - Use NATs: yes - Use PACOTS: yes - Use low airways: yes - Use high airways: yes

Route

BGTL FRINI 5E47 HENRY 8100N06500W 8200N06500W CYLT

ID Type Via Altitude Latitude Longitude Leg Dist Tot Dist Heading (true) Name
O BGTL APT - 0 ft / 0 m 76.53120˚ -68.70316˚ - 0 nm - THULE AIR BASE
FRINI FIX - 35,000 ft / 10,668 m 78.20000˚ -67.70000˚ 101 nm 101 nm 7° / 8° -
HENRY FIX 5E47 (AWY-HI) 29,800 ft / 9,083 m 80.25000˚ -65.91667˚ 124 nm 225 nm 8° / 10° -
8100N06500W LATLON - 21,000 ft / 6,401 m 81.00000˚ -65.00000˚ 45 nm 271 nm 11° / 12° -
8200N06500W LATLON - 8,100 ft / 2,469 m 82.00000˚ -65.00000˚ 60 nm 331 nm 0° / 360° -
O CYLT APT - 0 ft / 0 m 82.51778˚ -62.28056˚ 38 nm 369 nm 34° / 37° ALERT

Altitude Profile

Advertisement - Login to hide

Weather


0- 5 10 15 20 25 30 35+ Temperature / ° C

Clouds and Precipitation
Forecast for 2018-05-22 12:00 UTC. Updated 5 hours ago

Ground ~20,000 ft ~40,000 ft Winds

BGTL

Details ICAO BGTL (THU)
Name THULE AIR BASE
Region Greenland
Timezone America/Thule (UTC-3.0)
Stats Elevation 251 ft / 77 m (AMSL)
Location 76.531203° -68.703163°
Runways 1
Magnetic Variation 44.152° W

METAR

Not found

TAF

TAF BGTL 220900Z 2209/2315 VRB06KT 9999 SCT150 QNH2956INS BECMG 2313/2314 01009KT 9999 SCT150 OVC190 QNH2954INS TXM02/2209Z TNM09/2305Z

Decode

Departure Runways

ID Width Length Bearing (true) Bearing (mag) Surface Threshold Offset Overrun Length
08T 140 ft / 43 m 9,957 ft / 3,035 m 84.91° 129.06° Asphalt 0 ft / 0 m 233 ft / 71 m
26T 140 ft / 43 m 9,957 ft / 3,035 m 265.02° 309.17° Asphalt 0 ft / 0 m 233 ft / 71 m

CYLT

Details ICAO CYLT (YLT)
Name ALERT
Region Canada
Timezone Unknown (UTC+0.0)
Stats Elevation 100 ft / 30 m (AMSL)
Location 82.517778° -62.280555°
Runways 1
Magnetic Variation 49.231° W

METAR

CYLT 221630Z 33014KT 1 1/2SM -SN OVC007 M07/M09 A2995 RMK ST8 SLP147

Decode

TAF

TAF AMD TAF AMD CYLT 221640Z 2216/2224 32015KT 2SM -SN SCT006 OVC010 TEMPO 2216/2224 3/4SM -SN BR OVC006 RMK NXT FCST BY 221800Z

Decode

Destination Runways

ID Width Length Bearing (true) Bearing (mag) Surface Threshold Offset Overrun Length
05T 150 ft / 46 m 5,463 ft / 1,665 m 48.05° 97.28° Gravel 0 ft / 0 m 0 ft / 0 m
23T 150 ft / 46 m 5,463 ft / 1,665 m 228.13° 277.36° Gravel 0 ft / 0 m 0 ft / 0 m

Popular Alternatives